createdAt,value
2023-02-08T00:00:46.226Z,-3.09
2023-02-08T00:05:49.321Z,-3.12
2023-02-08T00:10:52.414Z,-3.15
2023-02-08T00:15:56.772Z,-3.16
2023-02-08T00:20:59.941Z,-3.16
2023-02-08T00:26:02.766Z,-3.15
2023-02-08T00:31:07.124Z,-3.11
2023-02-08T00:36:13.068Z,-3.08
2023-02-08T00:41:17.517Z,-3.13
2023-02-08T00:46:24.629Z,-3.20
2023-02-08T00:51:27.308Z,-3.32
2023-02-08T00:56:30.092Z,-3.44
2023-02-08T01:01:36.918Z,-3.51
2023-02-08T01:06:40.221Z,-3.50
2023-02-08T01:11:43.238Z,-3.48
2023-02-08T01:16:47.648Z,-3.56
2023-02-08T01:21:50.450Z,-3.63
2023-02-08T01:26:53.309Z,-3.61
2023-02-08T01:31:57.503Z,-3.64
2023-02-08T01:37:00.251Z,-3.71
2023-02-08T01:42:03.366Z,-3.72
2023-02-08T01:47:07.612Z,-3.78
2023-02-08T01:52:14.830Z,-3.84
2023-02-08T01:57:18.192Z,-3.81
2023-02-08T02:02:23.949Z,-3.91
2023-02-08T02:07:29.114Z,-3.92
2023-02-08T02:12:32.949Z,-3.95
2023-02-08T02:17:38.356Z,-3.95
2023-02-08T02:23:10.652Z,-3.97
2023-02-08T02:28:44.471Z,-4.00
2023-02-08T02:33:59.336Z,-4.06
2023-02-08T02:39:15.149Z,-4.19
2023-02-08T02:44:27.025Z,-4.14
2023-02-08T02:49:38.173Z,-4.09
2023-02-08T02:54:44.545Z,-4.10
2023-02-08T02:59:47.611Z,-4.06
2023-02-08T03:04:55.166Z,-4.05
2023-02-08T03:10:10.383Z,-4.01
2023-02-08T03:15:24.692Z,-3.95
2023-02-08T03:20:34.070Z,-3.97
2023-02-08T03:25:46.628Z,-3.92
2023-02-08T03:30:57.051Z,-3.97
2023-02-08T03:36:06.311Z,-4.11
2023-02-08T03:41:16.305Z,-4.18
2023-02-08T03:46:24.351Z,-4.08
2023-02-08T03:51:31.246Z,-4.12
2023-02-08T03:56:41.503Z,-4.26
2023-02-08T04:01:47.168Z,-4.28
2023-02-08T04:06:51.269Z,-4.25
2023-02-08T04:11:54.030Z,-4.24
2023-02-08T04:16:56.945Z,-4.28
2023-02-08T04:22:01.079Z,-4.27
2023-02-08T04:27:05.856Z,-4.34
2023-02-08T04:32:11.608Z,-4.38
2023-02-08T04:37:15.839Z,-4.37
2023-02-08T04:42:19.311Z,-4.43
2023-02-08T04:47:22.804Z,-4.40
2023-02-08T04:52:26.988Z,-4.40
2023-02-08T04:57:29.892Z,-4.43
2023-02-08T05:02:32.658Z,-4.46
2023-02-08T05:07:36.807Z,-4.49
2023-02-08T05:12:39.550Z,-4.55
2023-02-08T05:17:42.367Z,-4.48
2023-02-08T05:22:46.917Z,-4.45
2023-02-08T05:27:49.638Z,-4.49
2023-02-08T05:32:52.428Z,-4.46
2023-02-08T05:37:56.510Z,-4.42
2023-02-08T05:42:59.272Z,-4.43
2023-02-08T05:48:02.091Z,-4.46
2023-02-08T05:53:06.196Z,-4.46
2023-02-08T05:58:08.917Z,-4.44
2023-02-08T06:03:12.023Z,-4.43
2023-02-08T06:08:16.308Z,-4.40
2023-02-08T06:13:19.130Z,-4.39
2023-02-08T06:18:21.896Z,-4.37
2023-02-08T06:23:26.372Z,-4.36
2023-02-08T06:28:29.145Z,-4.38
2023-02-08T06:33:32.025Z,-4.41
2023-02-08T06:38:36.233Z,-4.38
2023-02-08T06:43:39.553Z,-4.34
2023-02-08T06:48:42.334Z,-4.31
2023-02-08T06:53:46.476Z,-4.30
2023-02-08T06:58:49.239Z,-4.28
2023-02-08T07:03:52.208Z,-4.22
2023-02-08T07:08:56.835Z,-4.14
2023-02-08T07:13:59.690Z,-3.89
2023-02-08T07:19:02.387Z,-3.64
2023-02-08T07:24:07.298Z,-3.40
2023-02-08T07:29:10.179Z,-3.17
2023-02-08T07:34:13.420Z,-3.04
2023-02-08T07:39:17.905Z,-2.86
2023-02-08T07:44:20.636Z,-2.60
2023-02-08T07:49:23.352Z,-2.35
2023-02-08T08:01:21.351Z,-1.68
2023-02-08T08:06:26.105Z,-1.50
2023-02-08T08:11:29.963Z,-1.34
2023-02-08T08:16:34.129Z,-1.03
2023-02-08T08:21:37.227Z,-0.92
2023-02-08T08:26:40.032Z,-0.75
2023-02-08T08:31:45.978Z,-0.64
2023-02-08T08:36:48.786Z,-0.47
2023-02-08T08:41:51.655Z,-0.28
2023-02-08T08:46:57.967Z,-0.11
2023-02-08T08:52:00.704Z,0.11
2023-02-08T08:57:03.891Z,0.14
2023-02-08T09:02:08.004Z,0.26
2023-02-08T09:07:11.963Z,0.45
2023-02-08T09:12:15.850Z,0.65
2023-02-08T09:17:20.096Z,0.73
2023-02-08T09:22:22.979Z,0.92
2023-02-08T09:27:25.896Z,1.11
2023-02-08T09:32:33.964Z,1.41
2023-02-08T09:37:37.018Z,1.31
2023-02-08T09:42:43.140Z,1.36
2023-02-08T09:47:55.597Z,1.56
2023-02-08T09:53:05.498Z,1.86
2023-02-08T09:58:19.178Z,1.84
2023-02-08T10:03:32.556Z,2.11
2023-02-08T10:08:37.162Z,2.32
2023-02-08T10:13:57.856Z,2.75
2023-02-08T10:19:08.915Z,2.88
2023-02-08T10:24:28.301Z,3.09
2023-02-08T10:30:00.826Z,3.48
2023-02-08T10:35:12.275Z,3.53
2023-02-08T10:40:25.940Z,3.61
2023-02-08T10:45:36.292Z,4.05
2023-02-08T10:50:42.661Z,4.30
2023-02-08T10:55:47.733Z,4.60
2023-02-08T11:00:52.072Z,5.00
2023-02-08T11:05:57.141Z,4.81
2023-02-08T11:11:03.669Z,4.85
2023-02-08T11:16:08.741Z,5.46
2023-02-08T11:21:25.833Z,5.50
2023-02-08T11:26:33.585Z,5.62
2023-02-08T11:31:37.055Z,6.12
2023-02-08T11:36:47.806Z,6.69
2023-02-08T11:41:53.661Z,6.31
2023-02-08T11:46:59.852Z,6.65
2023-02-08T11:52:05.555Z,7.18
2023-02-08T11:57:17.448Z,7.24
2023-02-08T12:02:37.341Z,7.93
2023-02-08T12:07:59.222Z,8.01
2023-02-08T12:13:30.338Z,8.83
2023-02-08T12:19:15.844Z,9.10
2023-02-08T12:24:27.946Z,9.78
2023-02-08T12:29:47.718Z,9.78
2023-02-08T12:35:07.810Z,10.06
2023-02-08T12:40:43.054Z,9.50
2023-02-08T12:45:59.888Z,8.51
2023-02-08T12:51:12.650Z,9.46
2023-02-08T12:56:19.937Z,8.71
2023-02-08T13:01:27.168Z,7.21
2023-02-08T13:06:34.382Z,7.30
2023-02-08T13:11:41.143Z,6.52
2023-02-08T13:16:47.039Z,6.65
2023-02-08T13:21:51.061Z,5.99
2023-02-08T13:26:55.378Z,5.90
2023-02-08T13:32:04.907Z,5.95
2023-02-08T13:37:25.456Z,5.91
2023-02-08T13:42:34.814Z,5.63
2023-02-08T13:47:45.962Z,5.64
2023-02-08T13:52:55.760Z,5.60
2023-02-08T13:58:01.338Z,5.75
2023-02-08T14:03:20.649Z,5.62
2023-02-08T14:08:31.690Z,5.70
2023-02-08T14:13:42.112Z,5.36
2023-02-08T14:18:52.948Z,5.28
2023-02-08T14:24:02.885Z,5.33
2023-02-08T14:29:08.179Z,5.28
2023-02-08T14:34:34.782Z,5.20
2023-02-08T14:39:39.159Z,5.13
2023-02-08T14:44:59.787Z,4.99
2023-02-08T14:50:09.768Z,4.80
2023-02-08T14:55:18.743Z,4.77
2023-02-08T15:00:26.869Z,4.80
2023-02-08T15:05:32.291Z,4.76
2023-02-08T15:10:36.295Z,4.61
2023-02-08T15:15:43.581Z,4.67
2023-02-08T15:20:47.644Z,4.61
2023-02-08T15:25:57.295Z,4.42
2023-02-08T15:31:05.062Z,4.37
2023-02-08T15:36:15.234Z,4.31
2023-02-08T15:41:26.919Z,4.15
2023-02-08T15:46:32.237Z,4.07
2023-02-08T15:51:35.201Z,3.93
2023-02-08T15:56:42.442Z,3.62
2023-02-08T16:01:49.057Z,3.49
2023-02-08T16:06:55.065Z,3.39
2023-02-08T16:12:00.480Z,3.20
2023-02-08T16:17:04.643Z,3.17
2023-02-08T16:22:26.570Z,2.99
2023-02-08T16:27:31.615Z,2.86
2023-02-08T16:32:39.443Z,2.67
2023-02-08T16:37:42.892Z,2.51
2023-02-08T16:42:46.158Z,2.35
2023-02-08T16:47:53.198Z,2.20
2023-02-08T16:53:00.102Z,2.01
2023-02-08T16:58:02.998Z,1.81
2023-02-08T17:03:07.097Z,1.69
2023-02-08T17:08:15.781Z,1.57
2023-02-08T17:13:21.133Z,1.44
2023-02-08T17:18:25.544Z,1.32
2023-02-08T17:23:28.420Z,1.13
2023-02-08T17:28:31.568Z,1.01
2023-02-08T17:33:40.016Z,0.91
2023-02-08T17:38:44.704Z,0.82
2023-02-08T17:43:50.891Z,0.72
2023-02-08T17:48:55.459Z,0.68
2023-02-08T17:53:58.206Z,0.70
2023-02-08T17:59:03.652Z,0.54
2023-02-08T18:04:11.086Z,0.35
2023-02-08T18:09:13.795Z,0.21
2023-02-08T18:14:18.274Z,0.08
2023-02-08T18:19:22.900Z,0.01
2023-02-08T18:24:25.602Z,-0.10
2023-02-08T18:29:28.437Z,-0.21
2023-02-08T18:34:33.408Z,-0.34
2023-02-08T18:39:36.405Z,-0.44
2023-02-08T18:44:39.306Z,-0.52
2023-02-08T18:49:43.605Z,-0.66
2023-02-08T18:54:46.310Z,-0.71
2023-02-08T18:59:49.227Z,-0.74
2023-02-08T19:04:53.374Z,-0.76
2023-02-08T19:09:56.201Z,-0.82
2023-02-08T19:14:59.311Z,-0.90
2023-02-08T19:20:03.603Z,-0.98
2023-02-08T19:25:07.052Z,-1.03
2023-02-08T19:30:11.511Z,-1.10
2023-02-08T19:35:15.648Z,-1.14
2023-02-08T19:40:19.304Z,-1.21
2023-02-08T19:45:22.059Z,-1.31
2023-02-08T19:50:26.173Z,-1.38
2023-02-08T19:55:29.029Z,-1.47
2023-02-08T20:00:31.787Z,-1.51
2023-02-08T20:05:37.916Z,-1.58
2023-02-08T20:10:41.608Z,-1.62
2023-02-08T20:15:45.112Z,-1.68
2023-02-08T20:20:59.972Z,-1.73
2023-02-08T20:26:07.730Z,-1.80
2023-02-08T20:31:13.016Z,-1.83
2023-02-08T20:36:19.930Z,-1.87
2023-02-08T20:41:23.306Z,-2.01
2023-02-08T20:46:28.041Z,-2.13
2023-02-08T20:51:32.776Z,-2.20
2023-02-08T20:56:38.106Z,-2.21
2023-02-08T21:01:41.206Z,-2.31
2023-02-08T21:06:46.331Z,-2.29
2023-02-08T21:11:49.689Z,-2.34
2023-02-08T21:16:55.996Z,-2.35
2023-02-08T21:22:02.681Z,-2.34
2023-02-08T21:27:06.701Z,-2.40
2023-02-08T21:32:10.617Z,-2.45
2023-02-08T21:37:14.791Z,-2.49
2023-02-08T21:42:17.562Z,-2.54
2023-02-08T21:47:20.332Z,-2.60
2023-02-08T21:52:42.101Z,-2.63
2023-02-08T21:57:44.854Z,-2.72
2023-02-08T22:02:47.650Z,-2.72
2023-02-08T22:07:54.222Z,-2.71
2023-02-08T22:12:57.705Z,-2.67
2023-02-08T22:18:02.890Z,-2.21
2023-02-08T22:23:07.492Z,-1.93
2023-02-08T22:28:10.356Z,-1.75
2023-02-08T22:33:13.271Z,-1.71
2023-02-08T22:38:17.446Z,-1.64
2023-02-08T22:43:20.234Z,-1.46
2023-02-08T22:48:23.183Z,-1.63
2023-02-08T22:53:27.609Z,-1.61
2023-02-08T22:58:30.554Z,-1.76
2023-02-08T23:03:33.311Z,-1.68
2023-02-08T23:08:37.848Z,-1.79
2023-02-08T23:13:40.624Z,-1.72
2023-02-08T23:18:43.529Z,-1.84
2023-02-08T23:23:49.359Z,-1.97
2023-02-08T23:28:53.590Z,-2.11
2023-02-08T23:33:56.346Z,-2.21
2023-02-08T23:39:03.364Z,-2.25
2023-02-08T23:44:06.370Z,-2.35
2023-02-08T23:49:09.120Z,-2.45
2023-02-08T23:54:13.337Z,-2.56
2023-02-08T23:59:16.106Z,-2.64
